EGMC - Southend-On-Sea
Distance from station: E 5mi, 14km
Updated: 10/23/2017 3:20pm
Overcast
Overcast
 Wind from SSW
Wind: SSW 8 mph , 13 km/h
Temperature: 57°F , 14°C
Dew Point: 55°F , 13°C
Humidity: 94%
Barometer: 30.06 inHg , 1018 hPa
Clouds: Overcast
Visibility: 6 miles , 10 km
Cloud details: Overcast 1700 ft
2017/10/23 22:20 EGMC 232220Z 21007KT 9999 OVC017 14/13 Q1018